createdAt,value
2017-10-12T00:01:50.447Z,82.20
2017-10-12T00:04:19.125Z,82.20
2017-10-12T00:06:48.632Z,82.20
2017-10-12T00:09:17.299Z,82.20
2017-10-12T00:11:45.984Z,82.20
2017-10-12T00:14:14.738Z,82.20
2017-10-12T00:16:45.046Z,82.20
2017-10-12T00:19:13.714Z,82.20
2017-10-12T00:21:42.918Z,82.20
2017-10-12T00:24:12.382Z,82.10
2017-10-12T00:26:41.506Z,82.10
2017-10-12T00:29:12.125Z,82.20
2017-10-12T00:31:43.010Z,82.20
2017-10-12T00:34:12.176Z,82.10
2017-10-12T00:36:42.389Z,82.10
2017-10-12T00:39:13.387Z,82.10
2017-10-12T00:41:45.791Z,82.10
2017-10-12T00:44:14.482Z,82.00
2017-10-12T00:46:45.345Z,81.90
2017-10-12T00:49:15.043Z,82.00
2017-10-12T00:51:45.584Z,82.60
2017-10-12T00:54:16.560Z,82.10
2017-10-12T00:56:48.446Z,82.10
2017-10-12T00:59:17.949Z,82.00
2017-10-12T01:01:49.764Z,82.00
2017-10-12T01:04:21.944Z,81.80
2017-10-12T01:06:51.966Z,81.80
2017-10-12T01:09:21.954Z,81.70
2017-10-12T01:11:51.100Z,81.40
2017-10-12T01:14:19.887Z,81.50
2017-10-12T01:16:50.649Z,81.00
2017-10-12T01:19:20.500Z,81.00
2017-10-12T01:21:52.909Z,81.00
2017-10-12T01:24:25.582Z,80.90
2017-10-12T01:26:56.730Z,81.00
2017-10-12T01:29:25.800Z,81.00
2017-10-12T01:31:55.800Z,81.00
2017-10-12T01:34:27.266Z,80.90
2017-10-12T01:36:58.547Z,80.90
2017-10-12T01:39:28.524Z,80.80
2017-10-12T01:41:57.701Z,80.80
2017-10-12T01:44:26.968Z,80.80
2017-10-12T01:46:56.752Z,80.50
2017-10-12T01:49:26.446Z,80.50
2017-10-12T01:51:56.446Z,80.50
2017-10-12T01:54:25.862Z,80.50
2017-10-12T01:56:54.667Z,80.60
2017-10-12T01:59:23.638Z,80.50
2017-10-12T02:01:52.862Z,80.70
2017-10-12T02:04:22.549Z,80.40
2017-10-12T02:06:54.310Z,80.40
2017-10-12T02:09:26.661Z,80.40
2017-10-12T02:11:55.356Z,80.30
2017-10-12T02:14:26.209Z,80.20
2017-10-12T02:16:55.728Z,80.00
2017-10-12T02:19:24.555Z,80.00
2017-10-12T02:21:53.423Z,80.00
2017-10-12T02:24:23.703Z,79.90
2017-10-12T02:26:54.231Z,79.60
2017-10-12T02:29:24.761Z,79.40
2017-10-12T02:31:54.660Z,79.40
2017-10-12T02:34:23.632Z,79.60
2017-10-12T02:36:52.530Z,79.50
2017-10-12T02:39:21.364Z,79.50
2017-10-12T02:41:50.416Z,79.40
2017-10-12T02:44:19.111Z,79.40
2017-10-12T02:46:47.821Z,79.50
2017-10-12T02:49:17.282Z,79.80
2017-10-12T02:51:46.138Z,79.80
2017-10-12T02:54:16.326Z,79.60
2017-10-12T02:56:45.474Z,79.80
2017-10-12T02:59:15.847Z,79.90
2017-10-12T03:01:46.075Z,80.00
2017-10-12T03:04:15.436Z,80.00
2017-10-12T03:06:44.155Z,79.80
2017-10-12T03:09:12.738Z,79.70
2017-10-12T03:11:41.441Z,79.60
2017-10-12T03:14:10.059Z,79.90
2017-10-12T03:16:39.034Z,80.00
2017-10-12T03:19:08.335Z,80.50
2017-10-12T03:21:37.701Z,80.50
2017-10-12T03:24:06.577Z,80.50
2017-10-12T03:26:35.540Z,80.50
2017-10-12T03:29:04.129Z,80.70
2017-10-12T03:31:32.855Z,80.70
2017-10-12T03:34:01.573Z,80.70
2017-10-12T03:36:30.996Z,80.80
2017-10-12T03:38:59.735Z,80.70
2017-10-12T03:41:29.284Z,80.90
2017-10-12T03:43:57.962Z,81.20
2017-10-12T03:46:26.667Z,81.10
2017-10-12T03:48:55.447Z,81.30
2017-10-12T03:51:26.242Z,81.30
2017-10-12T03:53:56.397Z,81.10
2017-10-12T03:56:26.065Z,80.90
2017-10-12T03:58:54.618Z,80.80
2017-10-12T04:01:24.094Z,80.80
2017-10-12T04:03:52.681Z,80.10
2017-10-12T04:06:21.275Z,80.90
2017-10-12T04:08:49.852Z,81.20
2017-10-12T04:11:18.377Z,81.40
2017-10-12T04:13:46.975Z,81.20
2017-10-12T04:16:15.648Z,81.50
2017-10-12T04:18:44.280Z,81.40
2017-10-12T04:21:12.878Z,81.40
2017-10-12T04:23:41.593Z,81.50
2017-10-12T04:26:11.414Z,81.40
2017-10-12T04:28:40.455Z,81.30
2017-10-12T04:31:10.189Z,81.20
2017-10-12T04:33:40.380Z,81.30
2017-10-12T04:36:09.853Z,81.30
2017-10-12T04:38:39.483Z,81.20
2017-10-12T04:41:08.918Z,81.40
2017-10-12T04:43:37.505Z,81.40
2017-10-12T04:46:08.339Z,81.40
2017-10-12T04:48:37.105Z,81.20
2017-10-12T04:51:06.518Z,81.50
2017-10-12T04:53:35.212Z,81.40
2017-10-12T04:56:03.767Z,81.50
2017-10-12T04:58:32.314Z,81.30
2017-10-12T05:01:01.124Z,81.20
2017-10-12T05:03:30.633Z,81.30
2017-10-12T05:05:59.181Z,81.30
2017-10-12T05:08:28.701Z,81.10
2017-10-12T05:10:57.301Z,81.00
2017-10-12T05:13:25.896Z,80.90
2017-10-12T05:15:55.295Z,80.80
2017-10-12T05:18:23.897Z,80.80
2017-10-12T05:20:52.514Z,80.80
2017-10-12T05:23:21.101Z,80.70
2017-10-12T05:25:49.746Z,80.70
2017-10-12T05:28:18.383Z,80.60
2017-10-12T05:30:47.949Z,80.60
2017-10-12T05:33:16.563Z,81.20
2017-10-12T05:35:45.234Z,80.40
2017-10-12T05:38:14.351Z,80.50
2017-10-12T05:40:43.296Z,80.70
2017-10-12T05:43:12.119Z,81.00
2017-10-12T05:45:40.742Z,80.90
2017-10-12T05:48:09.324Z,80.80
2017-10-12T05:50:37.954Z,80.80
2017-10-12T05:53:06.538Z,80.80
2017-10-12T05:55:35.151Z,80.70
2017-10-12T05:58:03.841Z,80.80
2017-10-12T06:00:32.428Z,80.80
2017-10-12T06:03:01.062Z,80.90
2017-10-12T06:05:29.639Z,81.00
2017-10-12T06:07:58.261Z,81.00
2017-10-12T06:10:26.875Z,81.00
2017-10-12T06:12:55.750Z,81.20
2017-10-12T06:15:24.454Z,81.20
2017-10-12T06:17:53.054Z,81.00
2017-10-12T06:20:21.761Z,81.00
2017-10-12T06:22:50.407Z,81.20
2017-10-12T06:25:18.974Z,81.10
2017-10-12T06:27:47.583Z,81.10
2017-10-12T06:30:16.380Z,80.90
2017-10-12T06:32:45.338Z,80.80
2017-10-12T06:35:13.967Z,80.90
2017-10-12T06:37:42.793Z,80.70
2017-10-12T06:40:12.238Z,80.70
2017-10-12T06:42:41.086Z,80.30
2017-10-12T06:45:10.531Z,80.30
2017-10-12T06:47:39.117Z,80.20
2017-10-12T06:50:08.362Z,79.90
2017-10-12T06:52:37.712Z,80.10
2017-10-12T06:57:41.082Z,79.80
2017-10-12T07:00:10.435Z,79.80
2017-10-12T07:02:38.972Z,79.70
2017-10-12T07:05:09.344Z,79.70
2017-10-12T07:07:37.958Z,79.70
2017-10-12T07:10:07.690Z,79.70
2017-10-12T07:12:36.330Z,79.30
2017-10-12T07:15:05.166Z,78.70
2017-10-12T07:17:33.845Z,78.50
2017-10-12T07:20:02.432Z,78.80
2017-10-12T07:22:31.031Z,78.40
2017-10-12T07:24:59.865Z,78.00
2017-10-12T07:27:28.596Z,77.70
2017-10-12T07:29:57.158Z,76.90
2017-10-12T07:32:25.717Z,77.20
2017-10-12T07:34:55.047Z,77.30
2017-10-12T07:37:23.688Z,77.20
2017-10-12T07:39:52.428Z,77.60
2017-10-12T07:42:21.172Z,77.20
2017-10-12T07:44:49.750Z,77.00
2017-10-12T07:47:18.695Z,76.40
2017-10-12T07:49:47.351Z,76.00
2017-10-12T07:52:16.902Z,75.00
2017-10-12T07:54:45.608Z,75.00
2017-10-12T07:57:14.257Z,74.40
2017-10-12T07:59:42.898Z,73.60
2017-10-12T08:02:11.668Z,72.50
2017-10-12T08:04:40.419Z,72.10
2017-10-12T08:07:09.810Z,73.50
2017-10-12T08:09:38.429Z,73.50
2017-10-12T08:12:07.090Z,74.30
2017-10-12T08:14:36.439Z,74.70
2017-10-12T08:17:05.178Z,74.60
2017-10-12T08:19:33.811Z,75.10
2017-10-12T08:22:02.523Z,75.10
2017-10-12T08:24:31.458Z,75.10
2017-10-12T08:27:00.505Z,75.00
2017-10-12T08:29:29.625Z,74.40
2017-10-12T08:31:58.242Z,74.00
2017-10-12T08:34:27.141Z,73.30
2017-10-12T08:36:56.805Z,73.00
2017-10-12T08:39:26.481Z,73.20
2017-10-12T08:41:56.798Z,72.80
2017-10-12T08:44:25.630Z,72.80
2017-10-12T08:46:54.529Z,71.90
2017-10-12T08:49:24.910Z,70.60
2017-10-12T08:51:54.371Z,70.30
2017-10-12T08:54:23.800Z,69.60
2017-10-12T08:56:52.931Z,69.40
2017-10-12T08:59:24.001Z,69.50
2017-10-12T09:01:53.844Z,69.30
2017-10-12T09:04:22.782Z,68.90
2017-10-12T09:06:51.752Z,68.80
2017-10-12T09:09:20.515Z,68.60
2017-10-12T09:11:49.172Z,68.60
2017-10-12T09:14:18.603Z,69.10
2017-10-12T09:16:47.284Z,69.00
2017-10-12T09:19:18.229Z,69.20
2017-10-12T09:21:46.942Z,70.00
2017-10-12T09:24:16.656Z,70.70
2017-10-12T09:26:45.358Z,72.10
2017-10-12T09:31:52.092Z,69.50
2017-10-12T09:34:21.118Z,69.70
2017-10-12T09:36:50.173Z,73.40
2017-10-12T09:39:18.959Z,74.60
2017-10-12T09:41:48.278Z,75.10
2017-10-12T09:44:17.314Z,72.80
2017-10-12T09:46:46.060Z,73.10
2017-10-12T09:49:20.286Z,73.40
2017-10-12T09:51:50.469Z,74.30
2017-10-12T09:54:19.275Z,74.50
2017-10-12T09:56:48.281Z,74.00
2017-10-12T09:59:17.577Z,73.30
2017-10-12T10:01:47.132Z,73.50
2017-10-12T10:04:15.923Z,73.10
2017-10-12T10:06:44.862Z,74.00
2017-10-12T10:09:13.862Z,73.80
2017-10-12T10:11:43.621Z,73.20
2017-10-12T10:14:12.343Z,72.10
2017-10-12T10:16:41.906Z,71.80
2017-10-12T10:19:11.346Z,72.70
2017-10-12T10:21:39.998Z,72.70
2017-10-12T10:24:08.779Z,72.10
2017-10-12T10:26:38.397Z,72.20
2017-10-12T10:29:07.641Z,72.10
2017-10-12T10:31:36.540Z,71.70
2017-10-12T10:34:05.631Z,71.20
2017-10-12T10:36:35.431Z,70.40
2017-10-12T10:39:04.966Z,70.10
2017-10-12T10:41:34.080Z,70.00
2017-10-12T10:44:02.770Z,70.00
2017-10-12T10:46:31.865Z,70.40
2017-10-12T10:49:00.642Z,69.90
2017-10-12T10:51:30.223Z,69.30
2017-10-12T10:53:59.327Z,69.30
2017-10-12T10:56:28.308Z,69.30
2017-10-12T10:58:56.975Z,69.40
2017-10-12T11:01:25.817Z,70.20
2017-10-12T11:03:54.672Z,69.50
2017-10-12T11:06:24.830Z,69.30
2017-10-12T11:08:54.389Z,69.70
2017-10-12T11:11:24.046Z,69.70
2017-10-12T11:13:52.844Z,70.00
2017-10-12T11:16:21.619Z,70.30
2017-10-12T11:18:51.029Z,70.90
2017-10-12T11:21:19.900Z,70.90
2017-10-12T11:23:48.735Z,71.40
2017-10-12T11:26:17.564Z,71.90
2017-10-12T11:28:46.436Z,71.40
2017-10-12T11:31:16.117Z,70.70
2017-10-12T11:33:45.561Z,70.90
2017-10-12T11:36:14.406Z,70.90
2017-10-12T11:38:43.125Z,70.70
2017-10-12T11:41:11.953Z,70.40
2017-10-12T11:43:42.391Z,70.00
2017-10-12T11:46:11.238Z,70.00
2017-10-12T11:48:40.566Z,69.70
2017-10-12T11:51:10.281Z,69.40
2017-10-12T11:53:39.420Z,69.30
2017-10-12T11:56:11.674Z,69.80
2017-10-12T11:58:41.184Z,69.50
2017-10-12T12:01:10.037Z,69.50
2017-10-12T12:03:38.779Z,69.10
2017-10-12T12:06:07.484Z,70.20
2017-10-12T12:08:37.104Z,69.70
2017-10-12T12:11:05.989Z,69.80
2017-10-12T12:13:35.502Z,69.70
2017-10-12T12:16:04.375Z,69.70
2017-10-12T12:18:33.118Z,69.60
2017-10-12T12:21:01.974Z,70.80
2017-10-12T12:23:30.691Z,70.50
2017-10-12T12:26:00.043Z,70.50
2017-10-12T12:28:29.807Z,71.10
2017-10-12T12:30:58.558Z,71.00
2017-10-12T12:33:27.654Z,71.30
2017-10-12T12:35:56.403Z,71.10
2017-10-12T12:38:26.701Z,71.30
2017-10-12T12:40:55.473Z,72.50
2017-10-12T12:43:25.010Z,71.60
2017-10-12T12:45:55.332Z,71.20
2017-10-12T12:48:24.782Z,70.00
2017-10-12T12:50:53.724Z,70.00
2017-10-12T12:53:23.440Z,67.80
2017-10-12T12:55:52.177Z,66.10
2017-10-12T12:58:21.563Z,61.80
2017-10-12T13:00:50.256Z,61.70
2017-10-12T13:03:19.147Z,60.00
2017-10-12T13:05:48.049Z,59.20
2017-10-12T13:08:17.139Z,58.00
2017-10-12T13:10:46.200Z,60.40
2017-10-12T13:13:15.331Z,60.00
2017-10-12T13:15:44.153Z,58.40
2017-10-12T13:18:14.239Z,54.80
2017-10-12T13:20:43.231Z,54.80
2017-10-12T13:23:11.975Z,56.00
2017-10-12T13:25:41.438Z,54.40
2017-10-12T13:28:11.136Z,54.60
2017-10-12T13:30:40.029Z,54.70
2017-10-12T13:33:09.079Z,54.10
2017-10-12T13:35:38.938Z,51.50
2017-10-12T13:38:08.001Z,51.50
2017-10-12T13:40:37.347Z,50.60
2017-10-12T13:43:06.198Z,50.70
2017-10-12T13:45:35.367Z,52.20
2017-10-12T13:48:05.074Z,51.50
2017-10-12T13:50:33.916Z,51.40
2017-10-12T13:53:02.988Z,51.80
2017-10-12T13:55:32.241Z,52.00
2017-10-12T13:58:01.079Z,54.10
2017-10-12T14:00:31.857Z,57.40
2017-10-12T14:03:00.663Z,57.40
2017-10-12T14:05:30.055Z,57.30
2017-10-12T14:07:58.858Z,57.80
2017-10-12T14:10:27.978Z,58.20
2017-10-12T14:12:56.784Z,58.90
2017-10-12T14:15:25.674Z,59.10
2017-10-12T14:17:54.448Z,58.30
2017-10-12T14:20:23.223Z,60.00
2017-10-12T14:22:51.953Z,62.20
2017-10-12T14:25:21.341Z,63.00
2017-10-12T14:27:54.703Z,63.50
2017-10-12T14:30:25.468Z,65.90
2017-10-12T14:32:56.654Z,65.90
2017-10-12T14:35:25.475Z,66.60
2017-10-12T14:37:55.129Z,67.00
2017-10-12T14:40:24.685Z,66.30
2017-10-12T14:42:54.618Z,67.90
2017-10-12T14:45:23.438Z,67.80
2017-10-12T14:47:53.004Z,68.30
2017-10-12T14:50:22.455Z,68.80
2017-10-12T14:52:51.107Z,68.80
2017-10-12T14:55:19.768Z,68.20
2017-10-12T14:57:48.583Z,68.90
2017-10-12T15:00:17.192Z,69.50
2017-10-12T15:02:45.907Z,69.20
2017-10-12T15:05:14.575Z,69.50
2017-10-12T15:07:43.364Z,70.60
2017-10-12T15:10:12.457Z,71.00
2017-10-12T15:12:41.878Z,71.00
2017-10-12T15:15:10.955Z,70.50
2017-10-12T15:17:39.677Z,70.90
2017-10-12T15:20:08.814Z,70.40
2017-10-12T15:22:37.531Z,69.50
2017-10-12T15:25:06.393Z,69.70
2017-10-12T15:27:35.933Z,69.80
2017-10-12T15:30:04.715Z,69.80
2017-10-12T15:32:33.445Z,69.80
2017-10-12T15:35:02.179Z,70.60
2017-10-12T15:37:30.997Z,71.00
2017-10-12T15:40:02.017Z,71.40
2017-10-12T15:42:30.730Z,72.00
2017-10-12T15:44:59.702Z,71.80
2017-10-12T15:47:28.722Z,72.00
2017-10-12T15:49:57.563Z,71.90
2017-10-12T15:52:26.452Z,72.30
2017-10-12T15:54:55.318Z,72.70
2017-10-12T15:57:24.005Z,72.60
2017-10-12T15:59:52.639Z,73.00
2017-10-12T16:02:21.364Z,73.10
2017-10-12T16:04:50.812Z,73.80
2017-10-12T16:07:19.537Z,73.80
2017-10-12T16:09:49.258Z,73.90
2017-10-12T16:12:18.491Z,73.80
2017-10-12T16:14:48.006Z,74.00
2017-10-12T16:17:16.766Z,74.00
2017-10-12T16:19:45.399Z,74.10
2017-10-12T16:22:14.092Z,74.30
2017-10-12T16:24:43.699Z,74.50
2017-10-12T16:27:12.288Z,74.40
2017-10-12T16:29:40.975Z,74.50
2017-10-12T16:32:10.779Z,74.50
2017-10-12T16:34:39.543Z,74.40
2017-10-12T16:37:08.200Z,74.90
2017-10-12T16:39:36.910Z,75.30
2017-10-12T16:42:06.546Z,74.70
2017-10-12T16:44:35.288Z,74.50
2017-10-12T16:47:04.025Z,75.20
2017-10-12T16:49:32.736Z,76.70
2017-10-12T16:52:02.527Z,77.80
2017-10-12T16:54:31.433Z,78.30
2017-10-12T16:57:00.477Z,78.40
2017-10-12T16:59:29.433Z,78.50
2017-10-12T17:01:58.470Z,79.30
2017-10-12T17:04:28.027Z,79.10
2017-10-12T17:06:56.747Z,79.80
2017-10-12T17:09:25.534Z,80.50
2017-10-12T17:11:54.304Z,80.70
2017-10-12T17:14:24.669Z,82.10
2017-10-12T17:16:53.443Z,82.10
2017-10-12T17:19:22.333Z,82.60
2017-10-12T17:21:51.172Z,83.50
2017-10-12T17:24:19.913Z,83.50
2017-10-12T17:26:48.813Z,83.60
2017-10-12T17:29:17.608Z,83.80
2017-10-12T17:31:46.391Z,83.70
2017-10-12T17:34:15.110Z,83.90
2017-10-12T17:36:43.734Z,84.20
2017-10-12T17:39:13.604Z,84.50
2017-10-12T17:41:42.737Z,84.70
2017-10-12T17:44:11.477Z,85.30
2017-10-12T17:46:40.411Z,85.40
2017-10-12T17:49:09.917Z,85.30
2017-10-12T17:51:38.783Z,85.40
2017-10-12T17:54:36.469Z,85.60
2017-10-12T17:56:36.520Z,85.80
2017-10-12T18:01:35.024Z,86.40
2017-10-12T18:04:03.870Z,86.30
2017-10-12T18:06:33.443Z,86.70
2017-10-12T18:09:02.385Z,86.50
2017-10-12T18:11:31.103Z,86.70
2017-10-12T18:13:59.892Z,86.70
2017-10-12T18:16:28.704Z,86.60
2017-10-12T18:18:58.227Z,86.80
2017-10-12T18:21:27.798Z,86.90
2017-10-12T18:23:56.475Z,86.80
2017-10-12T18:26:25.181Z,87.00
2017-10-12T18:28:53.826Z,87.10
2017-10-12T18:31:22.645Z,87.20
2017-10-12T18:33:51.360Z,87.30
2017-10-12T18:36:19.969Z,87.30
2017-10-12T18:38:48.736Z,87.40
2017-10-12T18:41:17.620Z,87.50
2017-10-12T18:43:47.003Z,87.20
2017-10-12T18:46:15.708Z,87.10
2017-10-12T18:48:44.509Z,87.30
2017-10-12T18:51:13.214Z,87.20
2017-10-12T18:53:41.985Z,87.40
2017-10-12T18:56:10.724Z,87.20
2017-10-12T18:58:39.403Z,87.40
2017-10-12T19:01:08.190Z,87.40
2017-10-12T19:03:36.979Z,87.30
2017-10-12T19:06:05.740Z,87.40
2017-10-12T19:08:34.371Z,87.20
2017-10-12T19:11:03.285Z,87.10
2017-10-12T19:13:31.958Z,87.20
2017-10-12T19:16:00.686Z,86.90
2017-10-12T19:18:29.666Z,86.80
2017-10-12T19:20:59.335Z,86.50
2017-10-12T19:23:28.007Z,86.40
2017-10-12T19:25:56.874Z,86.60
2017-10-12T19:28:40.598Z,86.50
2017-10-12T19:30:54.513Z,86.10
2017-10-12T19:33:23.441Z,85.50
2017-10-12T19:35:52.254Z,85.20
2017-10-12T19:38:22.011Z,84.70
2017-10-12T19:43:19.728Z,84.90
2017-10-12T19:48:17.270Z,83.90
2017-10-12T19:50:45.986Z,83.80
2017-10-12T19:53:15.194Z,83.80
2017-10-12T19:55:44.600Z,83.50
2017-10-12T19:58:15.744Z,83.50
2017-10-12T20:00:45.987Z,83.40
2017-10-12T20:03:15.425Z,83.50
2017-10-12T20:05:44.856Z,83.50
2017-10-12T20:08:15.260Z,83.40
2017-10-12T20:10:44.824Z,83.70
2017-10-12T20:13:15.055Z,83.60
2017-10-12T20:15:44.400Z,83.80
2017-10-12T20:18:16.986Z,83.60
2017-10-12T20:20:46.530Z,83.60
2017-10-12T20:23:16.297Z,83.40
2017-10-12T20:25:46.792Z,83.60
2017-10-12T20:28:16.702Z,83.60
2017-10-12T20:30:46.350Z,83.50
2017-10-12T20:33:15.851Z,83.50
2017-10-12T20:35:44.853Z,83.60
2017-10-12T20:38:14.452Z,83.60
2017-10-12T20:40:43.848Z,83.80
2017-10-12T20:43:12.734Z,83.60
2017-10-12T20:45:41.442Z,83.80
2017-10-12T20:48:10.614Z,83.60
2017-10-12T20:50:39.700Z,83.60
2017-10-12T20:53:09.727Z,83.70
2017-10-12T20:55:38.673Z,83.80
2017-10-12T20:58:08.063Z,83.80
2017-10-12T21:00:37.447Z,83.60
2017-10-12T21:03:07.911Z,83.70
2017-10-12T21:05:38.660Z,83.70
2017-10-12T21:08:08.522Z,83.60
2017-10-12T21:10:39.260Z,83.60
2017-10-12T21:13:09.576Z,83.80
2017-10-12T21:15:40.729Z,83.90
2017-10-12T21:18:11.367Z,83.70
2017-10-12T21:20:41.221Z,83.80
2017-10-12T21:23:10.500Z,83.90
2017-10-12T21:25:39.710Z,84.00
2017-10-12T21:28:08.446Z,83.80
2017-10-12T21:30:37.163Z,83.80
2017-10-12T21:33:12.064Z,83.90
2017-10-12T21:35:46.511Z,84.10
2017-10-12T21:38:16.403Z,84.10
2017-10-12T21:40:46.765Z,84.20
2017-10-12T21:43:16.636Z,84.20
2017-10-12T21:45:46.312Z,84.20
2017-10-12T21:48:14.951Z,84.40
2017-10-12T21:50:43.566Z,84.30
2017-10-12T21:53:12.264Z,84.60
2017-10-12T21:55:41.393Z,84.70
2017-10-12T21:58:10.072Z,84.80
2017-10-12T22:00:38.826Z,84.80
2017-10-12T22:03:08.440Z,84.90
2017-10-12T22:05:37.061Z,85.10
2017-10-12T22:08:05.777Z,85.10
2017-10-12T22:10:34.854Z,85.30
2017-10-12T22:13:03.948Z,85.30
2017-10-12T22:15:32.670Z,85.30
2017-10-12T22:18:02.897Z,85.40
2017-10-12T22:20:33.225Z,85.40
2017-10-12T22:23:03.343Z,85.30
2017-10-12T22:25:34.285Z,85.60
2017-10-12T22:28:04.055Z,85.60
2017-10-12T22:30:33.753Z,86.10
2017-10-12T22:33:04.697Z,85.50
2017-10-12T22:35:34.409Z,85.70
2017-10-12T22:38:04.495Z,85.50
2017-10-12T22:40:34.603Z,85.30
2017-10-12T22:43:04.369Z,85.40
2017-10-12T22:45:33.895Z,85.50
2017-10-12T22:48:03.057Z,85.40
2017-10-12T22:50:32.430Z,85.50
2017-10-12T22:53:01.761Z,85.50
2017-10-12T22:55:31.213Z,85.30
2017-10-12T22:58:01.322Z,85.50
2017-10-12T23:00:30.692Z,85.50
2017-10-12T23:03:00.091Z,85.50
2017-10-12T23:05:28.983Z,85.70
2017-10-12T23:07:58.084Z,85.80
2017-10-12T23:10:27.374Z,85.80
2017-10-12T23:12:56.577Z,85.80
2017-10-12T23:15:26.925Z,86.10
2017-10-12T23:17:56.824Z,85.50
2017-10-12T23:20:25.993Z,85.50
2017-10-12T23:22:55.204Z,85.60
2017-10-12T23:25:25.212Z,85.50
2017-10-12T23:27:54.019Z,85.50
2017-10-12T23:30:22.936Z,85.60
2017-10-12T23:32:51.903Z,85.80
2017-10-12T23:35:21.612Z,85.90
2017-10-12T23:37:50.557Z,85.90
2017-10-12T23:40:19.733Z,85.90
2017-10-12T23:42:48.875Z,85.90
2017-10-12T23:45:17.555Z,85.90
2017-10-12T23:47:46.644Z,86.10
2017-10-12T23:50:15.779Z,85.90
2017-10-12T23:52:45.080Z,85.80
2017-10-12T23:55:13.995Z,85.80
2017-10-12T23:57:43.786Z,85.80
